Hauptseite
METAR-TAF:

METAR-TAF

Flughäfen :

Fliegerhorst Hinterstoisser

Zeltweg, Österreich

Breite: 47-12N, Länge: 014-45E, Höhe: 677 m

Beobachtung

Neuester Wetterbericht von vor 11 Minuten, um 14:50 UTC
Wind 12 kt aus Nord/Nordwest
Temperatur 7°C
Luftfeuchtigkeit 33%
Luftdruck 1023 hPa

METAR: LOXZ 261450Z 33012KT 30KM FEW060CU 07/M08 Q1023 NOSIG

Zeit: 16:01 (15:01 UTC)

Prognose

Neuester Wetterbericht von vor 46 Minuten, um 14:15 UTC
Gültige Prognose vom 26 um 15 UTC bis 26 um 24 UTC
Wind 10 kt aus Nord/Nordwest, Böen bis zu 22 kt
Sichtweite 10 km oder mehr
Leicht bewölkt in der Höhe von 6000 ft
Übergehend zu
vom 26 um 16 UTC bis 26 um 18 UTC
Wind 5 kt aus unterschiedlichen Richtungen
Aufgelockert bewölkt in der Höhe von 6000 ft
Aufgelockert bewölkt in der Höhe von 26000 ft

TAF: LOXZ 261415Z 2615/2624 34010G22KT 9999 FEW060 BECMG 2616/2618 VRB05KT SCT060 SCT260

Wetterbeobachtungen und Prognosen von mehr als 4000 Flughäfen (METAR und TAF Bericht).

Die verfügbaren Stationen werden durch gelbe und rote Markierungen auf der Karte dargestellt.

Führen Sie die Maus auf sie, um den Namen der Station zu sehen.

Darauf klicken, um die Beobachtung von Wetterbeobachtungen und Prognosen zu sehen.

Um die Karte zu ändern : klicken Sie auf den grünen Tasten mit einem schwarzen Kreuz Zum Vergrößern, auf den grünen Button mit einem Gedankenstrich zu verkleinern, oder auf die grünen Pfeile für benachbarte Karten.


METAR-TAF: